sensor_id;sensor_type;location;lat;lon;timestamp;P1;durP1;ratioP1;P2;durP2;ratioP2
59607;SDS011;45426;44.726;10.390;2023-05-10T00:00:10;14.25;;;8.25;;
59607;SDS011;45426;44.726;10.390;2023-05-10T00:02:36;16.20;;;8.30;;
59607;SDS011;45426;44.726;10.390;2023-05-10T00:05:01;15.57;;;8.25;;
59607;SDS011;45426;44.726;10.390;2023-05-10T00:07:27;15.38;;;8.30;;
59607;SDS011;45426;44.726;10.390;2023-05-10T00:09:52;14.52;;;8.18;;
59607;SDS011;45426;44.726;10.390;2023-05-10T00:12:18;15.02;;;8.00;;
59607;SDS011;45426;44.726;10.390;2023-05-10T00:14:43;13.73;;;7.82;;
59607;SDS011;45426;44.726;10.390;2023-05-10T00:17:09;14.38;;;8.35;;
59607;SDS011;45426;44.726;10.390;2023-05-10T00:19:34;15.02;;;7.97;;
59607;SDS011;45426;44.726;10.390;2023-05-10T00:22:00;13.05;;;7.97;;
59607;SDS011;45426;44.726;10.390;2023-05-10T00:24:25;14.75;;;8.02;;
59607;SDS011;45426;44.726;10.390;2023-05-10T00:26:51;13.52;;;7.80;;
59607;SDS011;45426;44.726;10.390;2023-05-10T00:29:16;14.25;;;8.60;;
59607;SDS011;45426;44.726;10.390;2023-05-10T00:31:42;15.35;;;8.10;;
59607;SDS011;45426;44.726;10.390;2023-05-10T00:34:07;19.17;;;8.45;;
59607;SDS011;45426;44.726;10.390;2023-05-10T00:36:36;14.88;;;8.55;;
59607;SDS011;45426;44.726;10.390;2023-05-10T00:39:02;14.38;;;7.93;;
59607;SDS011;45426;44.726;10.390;2023-05-10T00:41:28;13.80;;;8.30;;
59607;SDS011;45426;44.726;10.390;2023-05-10T00:43:57;14.32;;;8.10;;
59607;SDS011;45426;44.726;10.390;2023-05-10T00:46:22;12.63;;;7.40;;
59607;SDS011;45426;44.726;10.390;2023-05-10T00:48:48;13.20;;;7.78;;
59607;SDS011;45426;44.726;10.390;2023-05-10T00:51:14;14.15;;;8.32;;
59607;SDS011;45426;44.726;10.390;2023-05-10T00:53:39;16.92;;;8.57;;
59607;SDS011;45426;44.726;10.390;2023-05-10T00:56:05;14.38;;;8.15;;
59607;SDS011;45426;44.726;10.390;2023-05-10T00:58:31;14.50;;;8.35;;
59607;SDS011;45426;44.726;10.390;2023-05-10T01:00:59;14.38;;;8.45;;
59607;SDS011;45426;44.726;10.390;2023-05-10T01:03:26;15.30;;;8.70;;
59607;SDS011;45426;44.726;10.390;2023-05-10T01:05:55;15.52;;;8.70;;
59607;SDS011;45426;44.726;10.390;2023-05-10T01:08:31;13.40;;;8.15;;
59607;SDS011;45426;44.726;10.390;2023-05-10T01:10:56;15.75;;;8.30;;
59607;SDS011;45426;44.726;10.390;2023-05-10T01:16:02;14.10;;;7.72;;
59607;SDS011;45426;44.726;10.390;2023-05-10T01:18:29;13.68;;;7.85;;
59607;SDS011;45426;44.726;10.390;2023-05-10T01:29:11;13.88;;;8.40;;
59607;SDS011;45426;44.726;10.390;2023-05-10T01:34:30;14.77;;;8.77;;
59607;SDS011;45426;44.726;10.390;2023-05-10T01:37:09;15.07;;;8.75;;
59607;SDS011;45426;44.726;10.390;2023-05-10T01:39:45;18.77;;;9.40;;
59607;SDS011;45426;44.726;10.390;2023-05-10T01:42:20;17.08;;;9.15;;
59607;SDS011;45426;44.726;10.390;2023-05-10T01:47:22;15.25;;;9.27;;
59607;SDS011;45426;44.726;10.390;2023-05-10T01:50:15;15.57;;;9.20;;
59607;SDS011;45426;44.726;10.390;2023-05-10T01:52:46;16.92;;;9.95;;
59607;SDS011;45426;44.726;10.390;2023-05-10T01:55:20;17.27;;;9.82;;
59607;SDS011;45426;44.726;10.390;2023-05-10T01:57:46;16.15;;;9.82;;
59607;SDS011;45426;44.726;10.390;2023-05-10T02:00:16;16.92;;;10.02;;
59607;SDS011;45426;44.726;10.390;2023-05-10T02:02:47;17.25;;;9.68;;
59607;SDS011;45426;44.726;10.390;2023-05-10T02:05:15;17.48;;;10.40;;
59607;SDS011;45426;44.726;10.390;2023-05-10T02:07:42;17.50;;;10.23;;
59607;SDS011;45426;44.726;10.390;2023-05-10T02:10:09;17.65;;;9.68;;
59607;SDS011;45426;44.726;10.390;2023-05-10T02:12:37;18.88;;;10.35;;
59607;SDS011;45426;44.726;10.390;2023-05-10T02:15:10;19.35;;;10.32;;
59607;SDS011;45426;44.726;10.390;2023-05-10T02:17:40;16.17;;;9.48;;
59607;SDS011;45426;44.726;10.390;2023-05-10T02:20:07;16.92;;;10.02;;
59607;SDS011;45426;44.726;10.390;2023-05-10T02:22:35;17.67;;;10.05;;
59607;SDS011;45426;44.726;10.390;2023-05-10T02:25:05;16.13;;;9.45;;
59607;SDS011;45426;44.726;10.390;2023-05-10T02:27:34;15.32;;;9.30;;
59607;SDS011;45426;44.726;10.390;2023-05-10T02:30:01;17.00;;;8.98;;
59607;SDS011;45426;44.726;10.390;2023-05-10T02:32:27;16.10;;;9.48;;
59607;SDS011;45426;44.726;10.390;2023-05-10T02:34:54;16.15;;;8.77;;
59607;SDS011;45426;44.726;10.390;2023-05-10T02:37:22;14.45;;;8.27;;
59607;SDS011;45426;44.726;10.390;2023-05-10T02:39:49;16.15;;;8.02;;
59607;SDS011;45426;44.726;10.390;2023-05-10T02:42:18;13.55;;;7.50;;
59607;SDS011;45426;44.726;10.390;2023-05-10T02:44:48;13.75;;;7.80;;
59607;SDS011;45426;44.726;10.390;2023-05-10T02:47:15;15.52;;;8.15;;
59607;SDS011;45426;44.726;10.390;2023-05-10T02:49:41;12.75;;;8.07;;
59607;SDS011;45426;44.726;10.390;2023-05-10T02:52:07;13.75;;;7.93;;
59607;SDS011;45426;44.726;10.390;2023-05-10T02:54:43;14.02;;;7.25;;
59607;SDS011;45426;44.726;10.390;2023-05-10T02:57:11;14.55;;;8.30;;
59607;SDS011;45426;44.726;10.390;2023-05-10T02:59:43;13.27;;;7.43;;
59607;SDS011;45426;44.726;10.390;2023-05-10T03:02:10;13.52;;;7.38;;
59607;SDS011;45426;44.726;10.390;2023-05-10T03:04:37;11.88;;;7.00;;
59607;SDS011;45426;44.726;10.390;2023-05-10T03:07:03;14.68;;;7.03;;
59607;SDS011;45426;44.726;10.390;2023-05-10T03:09:29;12.85;;;7.18;;
59607;SDS011;45426;44.726;10.390;2023-05-10T03:11:56;12.82;;;7.20;;
59607;SDS011;45426;44.726;10.390;2023-05-10T03:20:06;13.90;;;7.80;;
59607;SDS011;45426;44.726;10.390;2023-05-10T03:22:47;12.25;;;7.05;;
59607;SDS011;45426;44.726;10.390;2023-05-10T03:25:18;11.75;;;6.75;;
59607;SDS011;45426;44.726;10.390;2023-05-10T03:27:47;13.35;;;7.07;;
59607;SDS011;45426;44.726;10.390;2023-05-10T03:30:15;13.30;;;7.32;;
59607;SDS011;45426;44.726;10.390;2023-05-10T03:32:42;12.30;;;7.13;;
59607;SDS011;45426;44.726;10.390;2023-05-10T03:35:11;12.20;;;6.97;;
59607;SDS011;45426;44.726;10.390;2023-05-10T03:37:38;13.45;;;6.95;;
59607;SDS011;45426;44.726;10.390;2023-05-10T03:40:04;11.07;;;7.00;;
59607;SDS011;45426;44.726;10.390;2023-05-10T03:42:30;12.93;;;6.78;;
59607;SDS011;45426;44.726;10.390;2023-05-10T03:44:56;11.93;;;6.47;;
59607;SDS011;45426;44.726;10.390;2023-05-10T03:47:21;13.35;;;6.57;;
59607;SDS011;45426;44.726;10.390;2023-05-10T03:49:47;13.18;;;6.72;;
59607;SDS011;45426;44.726;10.390;2023-05-10T03:52:12;11.40;;;6.50;;
59607;SDS011;45426;44.726;10.390;2023-05-10T03:54:38;11.38;;;6.60;;
59607;SDS011;45426;44.726;10.390;2023-05-10T03:57:03;12.25;;;6.25;;
59607;SDS011;45426;44.726;10.390;2023-05-10T03:59:29;10.07;;;6.07;;
59607;SDS011;45426;44.726;10.390;2023-05-10T04:01:55;11.50;;;6.75;;
59607;SDS011;45426;44.726;10.390;2023-05-10T04:04:21;15.05;;;7.00;;
59607;SDS011;45426;44.726;10.390;2023-05-10T04:06:49;11.00;;;6.20;;
59607;SDS011;45426;44.726;10.390;2023-05-10T04:09:14;15.57;;;6.45;;
59607;SDS011;45426;44.726;10.390;2023-05-10T04:11:41;11.90;;;6.82;;
59607;SDS011;45426;44.726;10.390;2023-05-10T04:14:07;10.52;;;6.13;;
59607;SDS011;45426;44.726;10.390;2023-05-10T04:16:32;10.63;;;6.10;;
59607;SDS011;45426;44.726;10.390;2023-05-10T04:18:58;11.73;;;6.25;;
59607;SDS011;45426;44.726;10.390;2023-05-10T04:21:24;11.70;;;6.63;;
59607;SDS011;45426;44.726;10.390;2023-05-10T04:23:50;12.45;;;6.40;;
59607;SDS011;45426;44.726;10.390;2023-05-10T04:26:24;11.18;;;6.20;;
59607;SDS011;45426;44.726;10.390;2023-05-10T04:28:50;10.95;;;6.32;;
59607;SDS011;45426;44.726;10.390;2023-05-10T04:31:16;12.95;;;6.22;;
59607;SDS011;45426;44.726;10.390;2023-05-10T04:33:42;11.02;;;6.25;;
59607;SDS011;45426;44.726;10.390;2023-05-10T04:36:07;10.48;;;6.28;;
59607;SDS011;45426;44.726;10.390;2023-05-10T04:38:35;11.13;;;6.43;;
59607;SDS011;45426;44.726;10.390;2023-05-10T04:41:07;11.52;;;6.32;;
59607;SDS011;45426;44.726;10.390;2023-05-10T04:43:33;12.80;;;6.55;;
59607;SDS011;45426;44.726;10.390;2023-05-10T04:46:02;11.57;;;6.32;;
59607;SDS011;45426;44.726;10.390;2023-05-10T04:48:27;12.73;;;6.20;;
59607;SDS011;45426;44.726;10.390;2023-05-10T04:50:55;10.77;;;5.90;;
59607;SDS011;45426;44.726;10.390;2023-05-10T04:53:21;12.75;;;7.10;;
59607;SDS011;45426;44.726;10.390;2023-05-10T04:55:47;12.55;;;6.68;;
59607;SDS011;45426;44.726;10.390;2023-05-10T04:58:13;10.63;;;6.55;;
59607;SDS011;45426;44.726;10.390;2023-05-10T05:00:38;13.13;;;6.80;;
59607;SDS011;45426;44.726;10.390;2023-05-10T05:03:04;11.77;;;6.80;;
59607;SDS011;45426;44.726;10.390;2023-05-10T05:05:30;12.32;;;6.60;;
59607;SDS011;45426;44.726;10.390;2023-05-10T05:07:58;11.93;;;6.85;;
59607;SDS011;45426;44.726;10.390;2023-05-10T05:10:23;10.93;;;6.80;;
59607;SDS011;45426;44.726;10.390;2023-05-10T05:12:49;11.68;;;6.57;;
59607;SDS011;45426;44.726;10.390;2023-05-10T05:15:14;13.50;;;7.07;;
59607;SDS011;45426;44.726;10.390;2023-05-10T05:17:41;11.55;;;6.97;;
59607;SDS011;45426;44.726;10.390;2023-05-10T05:20:07;12.88;;;7.10;;
59607;SDS011;45426;44.726;10.390;2023-05-10T05:22:33;11.80;;;7.03;;
59607;SDS011;45426;44.726;10.390;2023-05-10T05:25:01;11.70;;;7.10;;
59607;SDS011;45426;44.726;10.390;2023-05-10T05:27:28;13.43;;;7.18;;
59607;SDS011;45426;44.726;10.390;2023-05-10T05:29:54;12.90;;;7.85;;
59607;SDS011;45426;44.726;10.390;2023-05-10T05:32:21;12.32;;;7.45;;
59607;SDS011;45426;44.726;10.390;2023-05-10T05:34:49;11.38;;;6.82;;
59607;SDS011;45426;44.726;10.390;2023-05-10T05:37:15;12.68;;;7.35;;
59607;SDS011;45426;44.726;10.390;2023-05-10T05:39:42;11.93;;;7.20;;
59607;SDS011;45426;44.726;10.390;2023-05-10T05:42:11;12.50;;;7.63;;
59607;SDS011;45426;44.726;10.390;2023-05-10T05:44:37;11.98;;;7.18;;
59607;SDS011;45426;44.726;10.390;2023-05-10T05:47:16;11.32;;;6.38;;
59607;SDS011;45426;44.726;10.390;2023-05-10T05:49:52;11.57;;;6.93;;
59607;SDS011;45426;44.726;10.390;2023-05-10T05:52:20;12.43;;;6.38;;
59607;SDS011;45426;44.726;10.390;2023-05-10T05:54:52;9.88;;;6.03;;
59607;SDS011;45426;44.726;10.390;2023-05-10T05:57:19;11.38;;;5.90;;
59607;SDS011;45426;44.726;10.390;2023-05-10T05:59:47;10.52;;;5.90;;
59607;SDS011;45426;44.726;10.390;2023-05-10T06:02:13;11.05;;;6.00;;
59607;SDS011;45426;44.726;10.390;2023-05-10T06:04:49;10.23;;;5.72;;
59607;SDS011;45426;44.726;10.390;2023-05-10T06:07:15;9.55;;;5.63;;
59607;SDS011;45426;44.726;10.390;2023-05-10T06:09:41;9.70;;;5.35;;
59607;SDS011;45426;44.726;10.390;2023-05-10T06:12:09;10.07;;;5.40;;
59607;SDS011;45426;44.726;10.390;2023-05-10T06:14:37;11.23;;;5.60;;
59607;SDS011;45426;44.726;10.390;2023-05-10T06:17:05;10.25;;;6.38;;
59607;SDS011;45426;44.726;10.390;2023-05-10T06:19:34;10.80;;;5.78;;
59607;SDS011;45426;44.726;10.390;2023-05-10T06:22:01;10.98;;;5.85;;
59607;SDS011;45426;44.726;10.390;2023-05-10T06:24:29;9.68;;;4.93;;
59607;SDS011;45426;44.726;10.390;2023-05-10T06:26:55;9.35;;;5.22;;
59607;SDS011;45426;44.726;10.390;2023-05-10T06:29:21;9.68;;;5.88;;
59607;SDS011;45426;44.726;10.390;2023-05-10T06:31:51;11.43;;;6.07;;
59607;SDS011;45426;44.726;10.390;2023-05-10T06:34:19;11.70;;;6.30;;
59607;SDS011;45426;44.726;10.390;2023-05-10T06:36:50;11.38;;;6.43;;
59607;SDS011;45426;44.726;10.390;2023-05-10T06:39:18;10.88;;;6.47;;
59607;SDS011;45426;44.726;10.390;2023-05-10T06:41:43;10.98;;;6.53;;
59607;SDS011;45426;44.726;10.390;2023-05-10T06:44:12;12.48;;;5.90;;
59607;SDS011;45426;44.726;10.390;2023-05-10T06:46:40;13.07;;;6.38;;
59607;SDS011;45426;44.726;10.390;2023-05-10T06:49:06;11.98;;;6.00;;
59607;SDS011;45426;44.726;10.390;2023-05-10T06:51:32;11.63;;;6.00;;
59607;SDS011;45426;44.726;10.390;2023-05-10T06:54:00;11.45;;;5.85;;
59607;SDS011;45426;44.726;10.390;2023-05-10T06:56:28;9.00;;;5.32;;
59607;SDS011;45426;44.726;10.390;2023-05-10T06:58:54;10.10;;;5.20;;
59607;SDS011;45426;44.726;10.390;2023-05-10T07:01:35;8.95;;;5.40;;
59607;SDS011;45426;44.726;10.390;2023-05-10T07:04:03;9.80;;;5.28;;
59607;SDS011;45426;44.726;10.390;2023-05-10T07:06:40;9.23;;;5.10;;
59607;SDS011;45426;44.726;10.390;2023-05-10T07:09:06;11.68;;;5.22;;
59607;SDS011;45426;44.726;10.390;2023-05-10T07:11:32;10.25;;;6.40;;
59607;SDS011;45426;44.726;10.390;2023-05-10T07:14:02;9.77;;;5.47;;
59607;SDS011;45426;44.726;10.390;2023-05-10T07:16:28;9.50;;;5.72;;
59607;SDS011;45426;44.726;10.390;2023-05-10T07:18:54;8.63;;;5.28;;
59607;SDS011;45426;44.726;10.390;2023-05-10T07:21:21;9.60;;;5.30;;
59607;SDS011;45426;44.726;10.390;2023-05-10T07:23:49;8.48;;;5.15;;
59607;SDS011;45426;44.726;10.390;2023-05-10T07:26:15;9.82;;;5.18;;
59607;SDS011;45426;44.726;10.390;2023-05-10T07:28:43;10.27;;;5.15;;
59607;SDS011;45426;44.726;10.390;2023-05-10T07:31:08;8.75;;;5.28;;
59607;SDS011;45426;44.726;10.390;2023-05-10T07:33:36;10.50;;;5.07;;
59607;SDS011;45426;44.726;10.390;2023-05-10T07:36:02;9.45;;;4.78;;
59607;SDS011;45426;44.726;10.390;2023-05-10T07:38:39;8.10;;;4.65;;
59607;SDS011;45426;44.726;10.390;2023-05-10T07:41:25;8.50;;;4.88;;
59607;SDS011;45426;44.726;10.390;2023-05-10T07:43:53;11.75;;;5.68;;
59607;SDS011;45426;44.726;10.390;2023-05-10T07:46:28;11.10;;;5.43;;
59607;SDS011;45426;44.726;10.390;2023-05-10T07:48:54;9.98;;;5.68;;
59607;SDS011;45426;44.726;10.390;2023-05-10T07:51:25;8.75;;;5.13;;
59607;SDS011;45426;44.726;10.390;2023-05-10T07:54:00;9.68;;;5.30;;
59607;SDS011;45426;44.726;10.390;2023-05-10T07:56:28;10.48;;;5.78;;
59607;SDS011;45426;44.726;10.390;2023-05-10T07:59:00;9.73;;;5.20;;
59607;SDS011;45426;44.726;10.390;2023-05-10T08:01:31;9.88;;;5.30;;
59607;SDS011;45426;44.726;10.390;2023-05-10T08:04:01;12.63;;;5.40;;
59607;SDS011;45426;44.726;10.390;2023-05-10T08:06:26;10.68;;;5.55;;
59607;SDS011;45426;44.726;10.390;2023-05-10T08:09:03;9.60;;;5.18;;
59607;SDS011;45426;44.726;10.390;2023-05-10T08:11:31;9.80;;;5.22;;
59607;SDS011;45426;44.726;10.390;2023-05-10T08:14:10;12.27;;;5.85;;
59607;SDS011;45426;44.726;10.390;2023-05-10T08:16:38;13.05;;;5.95;;
59607;SDS011;45426;44.726;10.390;2023-05-10T08:19:20;11.52;;;5.85;;
59607;SDS011;45426;44.726;10.390;2023-05-10T08:21:47;10.73;;;5.10;;
59607;SDS011;45426;44.726;10.390;2023-05-10T08:24:13;9.32;;;5.57;;
59607;SDS011;45426;44.726;10.390;2023-05-10T08:26:41;9.82;;;5.47;;
59607;SDS011;45426;44.726;10.390;2023-05-10T08:29:07;9.90;;;5.18;;
59607;SDS011;45426;44.726;10.390;2023-05-10T08:31:32;9.20;;;5.07;;
59607;SDS011;45426;44.726;10.390;2023-05-10T08:34:03;9.60;;;5.35;;
59607;SDS011;45426;44.726;10.390;2023-05-10T08:36:31;7.68;;;4.70;;
59607;SDS011;45426;44.726;10.390;2023-05-10T08:39:06;10.13;;;5.00;;
59607;SDS011;45426;44.726;10.390;2023-05-10T08:41:34;12.25;;;5.40;;
59607;SDS011;45426;44.726;10.390;2023-05-10T08:44:07;9.32;;;5.03;;
59607;SDS011;45426;44.726;10.390;2023-05-10T08:46:35;10.57;;;5.00;;
59607;SDS011;45426;44.726;10.390;2023-05-10T08:49:11;8.98;;;4.90;;
59607;SDS011;45426;44.726;10.390;2023-05-10T08:51:49;8.48;;;4.80;;
59607;SDS011;45426;44.726;10.390;2023-05-10T08:54:22;10.13;;;4.97;;
59607;SDS011;45426;44.726;10.390;2023-05-10T08:56:56;10.02;;;5.68;;
59607;SDS011;45426;44.726;10.390;2023-05-10T08:59:25;10.80;;;5.45;;
59607;SDS011;45426;44.726;10.390;2023-05-10T09:01:53;10.43;;;5.32;;
59607;SDS011;45426;44.726;10.390;2023-05-10T09:04:24;9.20;;;5.35;;
59607;SDS011;45426;44.726;10.390;2023-05-10T09:06:52;9.48;;;4.82;;
59607;SDS011;45426;44.726;10.390;2023-05-10T09:09:20;10.05;;;5.05;;
59607;SDS011;45426;44.726;10.390;2023-05-10T09:11:49;7.78;;;4.70;;
59607;SDS011;45426;44.726;10.390;2023-05-10T09:14:18;9.60;;;5.10;;
59607;SDS011;45426;44.726;10.390;2023-05-10T09:16:47;9.18;;;4.72;;
59607;SDS011;45426;44.726;10.390;2023-05-10T09:19:19;9.23;;;4.80;;
59607;SDS011;45426;44.726;10.390;2023-05-10T09:21:55;9.25;;;4.93;;
59607;SDS011;45426;44.726;10.390;2023-05-10T09:24:25;8.10;;;4.35;;
59607;SDS011;45426;44.726;10.390;2023-05-10T09:27:10;9.60;;;4.72;;
59607;SDS011;45426;44.726;10.390;2023-05-10T09:29:39;9.85;;;4.82;;
59607;SDS011;45426;44.726;10.390;2023-05-10T09:32:11;10.95;;;5.13;;
59607;SDS011;45426;44.726;10.390;2023-05-10T09:34:39;8.50;;;4.70;;
59607;SDS011;45426;44.726;10.390;2023-05-10T09:37:05;8.27;;;4.60;;
59607;SDS011;45426;44.726;10.390;2023-05-10T09:39:37;8.57;;;5.10;;
59607;SDS011;45426;44.726;10.390;2023-05-10T09:42:04;8.20;;;4.65;;
59607;SDS011;45426;44.726;10.390;2023-05-10T09:44:32;10.27;;;4.97;;
59607;SDS011;45426;44.726;10.390;2023-05-10T09:46:58;9.80;;;4.65;;
59607;SDS011;45426;44.726;10.390;2023-05-10T09:49:30;9.05;;;4.53;;
59607;SDS011;45426;44.726;10.390;2023-05-10T09:52:05;9.13;;;4.70;;
59607;SDS011;45426;44.726;10.390;2023-05-10T09:54:34;8.57;;;4.40;;
59607;SDS011;45426;44.726;10.390;2023-05-10T09:57:03;8.77;;;4.70;;
59607;SDS011;45426;44.726;10.390;2023-05-10T09:59:45;8.38;;;4.43;;
59607;SDS011;45426;44.726;10.390;2023-05-10T10:02:15;9.20;;;4.68;;
59607;SDS011;45426;44.726;10.390;2023-05-10T10:04:46;10.20;;;5.00;;
59607;SDS011;45426;44.726;10.390;2023-05-10T10:07:14;9.40;;;5.00;;
59607;SDS011;45426;44.726;10.390;2023-05-10T10:09:43;9.15;;;4.70;;
59607;SDS011;45426;44.726;10.390;2023-05-10T10:12:11;10.63;;;5.40;;
59607;SDS011;45426;44.726;10.390;2023-05-10T10:14:40;8.57;;;5.15;;
59607;SDS011;45426;44.726;10.390;2023-05-10T10:17:09;15.77;;;9.27;;
59607;SDS011;45426;44.726;10.390;2023-05-10T10:19:37;12.23;;;6.97;;
59607;SDS011;45426;44.726;10.390;2023-05-10T10:22:05;9.15;;;5.50;;
59607;SDS011;45426;44.726;10.390;2023-05-10T10:24:33;10.77;;;6.18;;
59607;SDS011;45426;44.726;10.390;2023-05-10T10:27:13;10.38;;;5.85;;
59607;SDS011;45426;44.726;10.390;2023-05-10T10:35:24;8.60;;;5.07;;
59607;SDS011;45426;44.726;10.390;2023-05-10T10:37:53;10.77;;;5.35;;
59607;SDS011;45426;44.726;10.390;2023-05-10T10:42:57;7.57;;;4.65;;
59607;SDS011;45426;44.726;10.390;2023-05-10T10:45:43;8.85;;;4.43;;
59607;SDS011;45426;44.726;10.390;2023-05-10T10:48:20;9.73;;;6.70;;
59607;SDS011;45426;44.726;10.390;2023-05-10T10:50:47;9.32;;;5.32;;
59607;SDS011;45426;44.726;10.390;2023-05-10T10:53:25;9.30;;;5.30;;
59607;SDS011;45426;44.726;10.390;2023-05-10T10:56:01;7.93;;;4.45;;
59607;SDS011;45426;44.726;10.390;2023-05-10T10:58:34;8.93;;;4.53;;
59607;SDS011;45426;44.726;10.390;2023-05-10T11:01:15;7.85;;;4.32;;
59607;SDS011;45426;44.726;10.390;2023-05-10T11:06:31;7.25;;;4.18;;
59607;SDS011;45426;44.726;10.390;2023-05-10T11:08:59;8.63;;;4.22;;
59607;SDS011;45426;44.726;10.390;2023-05-10T11:11:30;7.20;;;4.32;;
59607;SDS011;45426;44.726;10.390;2023-05-10T11:14:06;8.60;;;4.10;;
59607;SDS011;45426;44.726;10.390;2023-05-10T11:16:43;7.15;;;4.05;;
59607;SDS011;45426;44.726;10.390;2023-05-10T11:19:18;7.85;;;4.32;;
59607;SDS011;45426;44.726;10.390;2023-05-10T11:24:30;7.72;;;4.28;;
59607;SDS011;45426;44.726;10.390;2023-05-10T11:26:58;7.10;;;4.15;;
59607;SDS011;45426;44.726;10.390;2023-05-10T11:29:37;8.77;;;4.60;;
59607;SDS011;45426;44.726;10.390;2023-05-10T11:32:05;9.05;;;4.20;;
59607;SDS011;45426;44.726;10.390;2023-05-10T11:34:33;7.75;;;4.25;;
59607;SDS011;45426;44.726;10.390;2023-05-10T11:36:59;9.45;;;4.50;;
59607;SDS011;45426;44.726;10.390;2023-05-10T11:39:28;9.00;;;4.40;;
59607;SDS011;45426;44.726;10.390;2023-05-10T11:41:59;7.90;;;4.53;;
59607;SDS011;45426;44.726;10.390;2023-05-10T11:44:31;8.30;;;4.40;;
59607;SDS011;45426;44.726;10.390;2023-05-10T11:47:02;7.90;;;4.25;;
59607;SDS011;45426;44.726;10.390;2023-05-10T11:49:28;7.43;;;4.07;;
59607;SDS011;45426;44.726;10.390;2023-05-10T11:52:03;7.82;;;4.20;;
59607;SDS011;45426;44.726;10.390;2023-05-10T11:54:30;7.93;;;4.18;;
59607;SDS011;45426;44.726;10.390;2023-05-10T11:57:00;7.63;;;4.10;;
59607;SDS011;45426;44.726;10.390;2023-05-10T11:59:25;7.55;;;3.97;;
59607;SDS011;45426;44.726;10.390;2023-05-10T12:01:51;7.10;;;3.88;;
59607;SDS011;45426;44.726;10.390;2023-05-10T12:04:20;8.90;;;4.18;;
59607;SDS011;45426;44.726;10.390;2023-05-10T12:06:46;7.55;;;3.75;;
59607;SDS011;45426;44.726;10.390;2023-05-10T12:09:12;9.25;;;4.57;;
59607;SDS011;45426;44.726;10.390;2023-05-10T12:11:39;10.52;;;5.10;;
59607;SDS011;45426;44.726;10.390;2023-05-10T12:14:08;5.72;;;3.75;;
59607;SDS011;45426;44.726;10.390;2023-05-10T12:16:34;9.32;;;4.45;;
59607;SDS011;45426;44.726;10.390;2023-05-10T12:19:01;9.27;;;4.53;;
59607;SDS011;45426;44.726;10.390;2023-05-10T12:21:36;8.68;;;4.82;;
59607;SDS011;45426;44.726;10.390;2023-05-10T12:24:08;9.27;;;5.15;;
59607;SDS011;45426;44.726;10.390;2023-05-10T12:26:41;8.00;;;4.97;;
59607;SDS011;45426;44.726;10.390;2023-05-10T12:29:19;10.68;;;5.53;;
59607;SDS011;45426;44.726;10.390;2023-05-10T12:31:57;17.50;;;8.05;;
59607;SDS011;45426;44.726;10.390;2023-05-10T12:34:29;11.35;;;5.22;;
59607;SDS011;45426;44.726;10.390;2023-05-10T12:36:56;8.23;;;4.50;;
59607;SDS011;45426;44.726;10.390;2023-05-10T12:39:22;7.85;;;4.50;;
59607;SDS011;45426;44.726;10.390;2023-05-10T12:41:48;10.30;;;4.22;;
59607;SDS011;45426;44.726;10.390;2023-05-10T12:44:14;8.50;;;4.70;;
59607;SDS011;45426;44.726;10.390;2023-05-10T12:46:39;8.05;;;4.18;;
59607;SDS011;45426;44.726;10.390;2023-05-10T12:49:05;7.55;;;4.20;;
59607;SDS011;45426;44.726;10.390;2023-05-10T12:51:30;6.45;;;3.72;;
59607;SDS011;45426;44.726;10.390;2023-05-10T12:53:58;7.15;;;4.10;;
59607;SDS011;45426;44.726;10.390;2023-05-10T12:56:24;6.00;;;3.53;;
59607;SDS011;45426;44.726;10.390;2023-05-10T12:58:49;7.50;;;4.20;;
59607;SDS011;45426;44.726;10.390;2023-05-10T13:01:15;7.00;;;3.63;;
59607;SDS011;45426;44.726;10.390;2023-05-10T13:03:41;5.78;;;3.75;;
59607;SDS011;45426;44.726;10.390;2023-05-10T13:06:08;6.85;;;4.05;;
59607;SDS011;45426;44.726;10.390;2023-05-10T13:08:33;5.93;;;3.80;;
59607;SDS011;45426;44.726;10.390;2023-05-10T13:10:59;6.40;;;3.63;;
59607;SDS011;45426;44.726;10.390;2023-05-10T13:13:26;7.63;;;4.10;;
59607;SDS011;45426;44.726;10.390;2023-05-10T13:15:51;7.78;;;4.10;;
59607;SDS011;45426;44.726;10.390;2023-05-10T13:18:17;5.50;;;3.45;;
59607;SDS011;45426;44.726;10.390;2023-05-10T13:20:42;6.30;;;3.67;;
59607;SDS011;45426;44.726;10.390;2023-05-10T13:23:09;6.82;;;3.80;;
59607;SDS011;45426;44.726;10.390;2023-05-10T13:25:35;5.35;;;3.45;;
59607;SDS011;45426;44.726;10.390;2023-05-10T13:28:03;5.97;;;3.40;;
59607;SDS011;45426;44.726;10.390;2023-05-10T13:30:34;5.80;;;3.30;;
59607;SDS011;45426;44.726;10.390;2023-05-10T13:33:00;5.60;;;3.10;;
59607;SDS011;45426;44.726;10.390;2023-05-10T13:35:25;6.53;;;3.35;;
59607;SDS011;45426;44.726;10.390;2023-05-10T13:37:51;7.10;;;3.97;;
59607;SDS011;45426;44.726;10.390;2023-05-10T13:40:18;6.28;;;3.67;;
59607;SDS011;45426;44.726;10.390;2023-05-10T13:42:46;5.45;;;3.42;;
59607;SDS011;45426;44.726;10.390;2023-05-10T13:45:14;5.75;;;3.38;;
59607;SDS011;45426;44.726;10.390;2023-05-10T13:47:40;5.68;;;3.30;;
59607;SDS011;45426;44.726;10.390;2023-05-10T13:50:06;6.32;;;3.60;;
59607;SDS011;45426;44.726;10.390;2023-05-10T13:52:32;6.30;;;3.60;;
59607;SDS011;45426;44.726;10.390;2023-05-10T13:55:00;9.43;;;4.85;;
59607;SDS011;45426;44.726;10.390;2023-05-10T13:57:25;7.05;;;4.10;;
59607;SDS011;45426;44.726;10.390;2023-05-10T13:59:51;7.80;;;4.18;;
59607;SDS011;45426;44.726;10.390;2023-05-10T14:02:22;6.50;;;3.90;;
59607;SDS011;45426;44.726;10.390;2023-05-10T14:04:47;6.00;;;3.38;;
59607;SDS011;45426;44.726;10.390;2023-05-10T14:07:13;6.15;;;3.72;;
59607;SDS011;45426;44.726;10.390;2023-05-10T14:09:38;5.60;;;3.58;;
59607;SDS011;45426;44.726;10.390;2023-05-10T14:12:04;8.27;;;4.80;;
59607;SDS011;45426;44.726;10.390;2023-05-10T14:14:30;6.75;;;3.45;;
59607;SDS011;45426;44.726;10.390;2023-05-10T14:16:55;5.80;;;3.45;;
59607;SDS011;45426;44.726;10.390;2023-05-10T14:19:21;5.22;;;3.35;;
59607;SDS011;45426;44.726;10.390;2023-05-10T14:21:46;6.25;;;3.58;;
59607;SDS011;45426;44.726;10.390;2023-05-10T14:24:13;5.18;;;3.30;;
59607;SDS011;45426;44.726;10.390;2023-05-10T14:26:41;5.38;;;3.40;;
59607;SDS011;45426;44.726;10.390;2023-05-10T14:29:06;6.03;;;3.50;;
59607;SDS011;45426;44.726;10.390;2023-05-10T14:31:32;8.13;;;4.07;;
59607;SDS011;45426;44.726;10.390;2023-05-10T14:34:00;6.70;;;3.70;;
59607;SDS011;45426;44.726;10.390;2023-05-10T14:36:28;7.50;;;4.05;;
59607;SDS011;45426;44.726;10.390;2023-05-10T14:38:57;7.45;;;3.92;;
59607;SDS011;45426;44.726;10.390;2023-05-10T14:41:25;7.03;;;3.97;;
59607;SDS011;45426;44.726;10.390;2023-05-10T14:43:51;5.68;;;3.42;;
59607;SDS011;45426;44.726;10.390;2023-05-10T14:46:16;6.93;;;3.55;;
59607;SDS011;45426;44.726;10.390;2023-05-10T14:48:43;6.65;;;3.58;;
59607;SDS011;45426;44.726;10.390;2023-05-10T14:51:08;5.97;;;3.33;;
59607;SDS011;45426;44.726;10.390;2023-05-10T14:53:34;5.22;;;3.40;;
59607;SDS011;45426;44.726;10.390;2023-05-10T14:55:59;6.28;;;3.28;;
59607;SDS011;45426;44.726;10.390;2023-05-10T14:58:26;7.28;;;3.33;;
59607;SDS011;45426;44.726;10.390;2023-05-10T15:00:52;6.25;;;3.80;;
59607;SDS011;45426;44.726;10.390;2023-05-10T15:03:18;7.10;;;4.65;;
59607;SDS011;45426;44.726;10.390;2023-05-10T15:05:43;9.00;;;4.30;;
59607;SDS011;45426;44.726;10.390;2023-05-10T15:08:09;7.32;;;4.70;;
59607;SDS011;45426;44.726;10.390;2023-05-10T15:10:38;7.85;;;4.40;;